Time;durP1;ratioP1;P1;durP2;ratioP2;P2;SDS_P1;SDS_P2;PMS_P1;PMS_P2;Temp;Humidity;BMP_temperature;BMP_pressure;BME280_temperature;BME280_humidity;BME280_pressure;Samples;Min_cycle;Max_cycle;Signal;HPM_P1;HPM_P2
2023/07/01 00:01:38;;;;;;;5.90;4.45;;;27.20;53.60;;;;;;5115573;28;20040;-77
2023/07/01 00:04:04;;;;;;;9.77;4.82;;;27.10;53.60;;;;;;5115472;28;20220;-77
2023/07/01 00:06:30;;;;;;;5.45;3.92;;;27.10;53.70;;;;;;5115537;28;20081;-78
2023/07/01 00:08:56;;;;;;;6.88;4.90;;;27.20;53.60;;;;;;5113900;28;20070;-77
2023/07/01 00:11:22;;;;;;;6.85;4.55;;;27.20;53.60;;;;;;5114149;28;20096;-78
2023/07/01 00:13:48;;;;;;;9.93;5.03;;;27.20;53.60;;;;;;5115251;27;20031;-77
2023/07/01 00:16:15;;;;;;;4.80;4.22;;;27.00;53.60;;;;;;5115343;28;20038;-78
2023/07/01 00:18:41;;;;;;;6.00;4.35;;;27.20;53.60;;;;;;5113726;28;20457;-77
2023/07/01 00:21:07;;;;;;;7.03;4.82;;;27.20;53.50;;;;;;5114897;28;20538;-77
2023/07/01 00:23:34;;;;;;;4.35;3.95;;;27.10;53.60;;;;;;5113602;28;20044;-77
2023/07/01 00:26:00;;;;;;;8.27;4.85;;;27.00;53.60;;;;;;5115105;28;20020;-77
2023/07/01 00:28:26;;;;;;;6.60;4.50;;;27.00;53.60;;;;;;5115018;28;20088;-77
2023/07/01 00:30:52;;;;;;;5.15;4.38;;;27.00;53.60;;;;;;5113555;28;20036;-77
2023/07/01 00:33:18;;;;;;;9.25;4.40;;;27.10;53.60;;;;;;5113627;28;20088;-77
2023/07/01 00:35:46;;;;;;;6.53;4.35;;;27.10;53.60;;;;;;5113385;28;20041;-77
2023/07/01 00:38:12;;;;;;;6.55;4.55;;;27.10;53.60;;;;;;5114838;28;20024;-77
2023/07/01 00:40:38;;;;;;;6.60;3.90;;;27.10;53.70;;;;;;5114740;27;20524;-77
2023/07/01 00:43:04;;;;;;;7.22;4.70;;;27.00;53.70;;;;;;5113598;28;20066;-78
2023/07/01 00:45:30;;;;;;;11.52;4.22;;;27.00;53.70;;;;;;5112991;28;20451;-77
2023/07/01 00:47:56;;;;;;;6.25;4.60;;;27.20;53.70;;;;;;5113365;28;20047;-77
2023/07/01 00:50:24;;;;;;;5.78;4.05;;;27.10;53.70;;;;;;5111961;28;20035;-77
2023/07/01 00:52:50;;;;;;;5.68;4.68;;;27.10;53.70;;;;;;5112043;28;20368;-77
2023/07/01 00:55:16;;;;;;;6.00;3.78;;;27.10;53.70;;;;;;5112232;28;20092;-78
2023/07/01 00:57:43;;;;;;;4.95;3.80;;;27.10;53.70;;;;;;5113411;28;20040;-77
2023/07/01 01:00:12;;;;;;;6.38;3.67;;;27.10;53.70;;;;;;5111900;28;20028;-77
2023/07/01 01:03:15;;;;;;;7.45;3.80;;;27.00;53.70;;;;;;5113255;28;20031;-77
2023/07/01 01:06:01;;;;;;;8.13;4.38;;;27.10;53.70;;;;;;5094859;28;20035;-77
2023/07/01 01:09:02;;;;;;;8.63;3.67;;;27.00;53.70;;;;;;5112161;28;20093;-77
2023/07/01 01:11:31;;;;;;;5.25;4.10;;;27.20;53.70;;;;;;5112974;28;20055;-77
2023/07/01 01:14:02;;;;;;;8.57;4.13;;;27.20;53.70;;;;;;5111900;28;20040;-77
2023/07/01 01:16:29;;;;;;;7.45;3.83;;;27.20;53.70;;;;;;5111912;28;20039;-78
2023/07/01 01:18:58;;;;;;;9.27;4.53;;;27.20;53.60;;;;;;5111735;28;20387;-77
2023/07/01 01:21:27;;;;;;;7.13;3.78;;;27.10;53.60;;;;;;5112730;28;20059;-77
2023/07/01 01:24:00;;;;;;;8.25;4.18;;;27.10;53.60;;;;;;5112679;28;20032;-77
2023/07/01 01:26:31;;;;;;;6.22;4.18;;;27.20;53.60;;;;;;5112777;28;20042;-77
2023/07/01 01:28:57;;;;;;;6.88;4.15;;;27.20;53.60;;;;;;5111757;28;20036;-77
2023/07/01 01:31:23;;;;;;;8.43;5.30;;;27.10;53.60;;;;;;5111514;28;20039;-77
2023/07/01 01:33:49;;;;;;;5.80;4.22;;;27.00;53.60;;;;;;5112876;28;20439;-77
2023/07/01 01:36:40;;;;;;;5.57;4.10;;;26.90;53.10;;;;;;5112681;28;20114;-76
2023/07/01 01:39:08;;;;;;;10.18;4.68;;;27.10;53.70;;;;;;5112944;28;20149;-77
2023/07/01 01:42:06;;;;;;;9.85;5.50;;;27.10;53.70;;;;;;5112301;28;20424;-78
2023/07/01 01:44:47;;;;;;;5.20;4.20;;;27.00;53.70;;;;;;5070589;28;1198308;-77
2023/07/01 01:47:19;;;;;;;6.45;4.78;;;27.00;53.70;;;;;;5113723;28;20039;-77
2023/07/01 01:49:52;;;;;;;10.70;4.43;;;27.00;53.70;;;;;;5112112;28;20045;-77
2023/07/01 01:52:21;;;;;;;6.95;4.38;;;27.00;53.70;;;;;;5113425;28;20479;-77
2023/07/01 01:54:48;;;;;;;8.98;4.72;;;27.00;53.70;;;;;;5113394;28;20472;-78
2023/07/01 01:57:16;;;;;;;7.22;4.68;;;27.10;53.70;;;;;;5111920;28;20039;-77
2023/07/01 01:59:44;;;;;;;5.32;4.57;;;26.90;53.20;;;;;;5094833;28;20441;-77
2023/07/01 02:02:10;;;;;;;11.82;4.53;;;27.10;53.70;;;;;;5112157;28;20092;-77
2023/07/01 02:04:36;;;;;;;5.95;4.05;;;27.10;53.70;;;;;;5112260;28;20035;-77
2023/07/01 02:07:03;;;;;;;7.35;4.82;;;27.00;53.80;;;;;;5113225;28;20185;-77
2023/07/01 02:09:30;;;;;;;5.35;4.40;;;27.00;53.80;;;;;;5111718;28;20034;-77
2023/07/01 02:11:56;;;;;;;6.15;4.10;;;27.20;53.70;;;;;;5112993;28;20035;-77
2023/07/01 02:14:22;;;;;;;6.82;4.65;;;27.10;53.70;;;;;;5112999;28;20039;-77
2023/07/01 02:16:50;;;;;;;9.48;4.88;;;27.00;53.70;;;;;;5111649;28;20039;-77
2023/07/01 02:19:16;;;;;;;5.65;4.32;;;27.00;53.70;;;;;;5111713;28;20448;-77
2023/07/01 02:21:42;;;;;;;9.68;4.93;;;27.10;53.70;;;;;;5111435;28;20115;-77
2023/07/01 02:24:09;;;;;;;6.38;4.07;;;27.00;53.70;;;;;;5112627;27;20039;-77
2023/07/01 02:26:35;;;;;;;7.38;4.40;;;26.90;53.10;;;;;;5112630;28;20042;-77
2023/07/01 02:29:02;;;;;;;9.77;4.45;;;27.30;53.60;;;;;;5111386;28;20357;-77
2023/07/01 02:31:28;;;;;;;5.93;4.47;;;27.00;53.60;;;;;;5112371;28;20023;-77
2023/07/01 02:34:00;;;;;;;6.75;4.90;;;27.10;53.60;;;;;;5094341;28;20566;-78
2023/07/01 02:36:27;;;;;;;7.07;4.38;;;27.00;53.60;;;;;;5111382;28;20116;-77
2023/07/01 02:38:53;;;;;;;7.95;4.43;;;27.00;53.60;;;;;;5112398;28;20035;-77
2023/07/01 02:41:19;;;;;;;6.85;4.55;;;27.00;53.70;;;;;;5112340;28;20032;-77
2023/07/01 02:43:45;;;;;;;6.20;4.53;;;26.90;53.10;;;;;;5111084;28;20047;-77
2023/07/01 02:46:11;;;;;;;5.97;4.10;;;27.00;53.70;;;;;;5112312;28;20032;-77
2023/07/01 02:48:37;;;;;;;6.38;4.25;;;27.10;53.70;;;;;;5112294;27;20031;-78
2023/07/01 02:51:04;;;;;;;7.43;4.57;;;27.10;53.70;;;;;;5112166;27;20032;-77
2023/07/01 02:53:30;;;;;;;5.75;4.25;;;27.00;53.70;;;;;;5110728;28;20458;-77
2023/07/01 02:55:58;;;;;;;5.68;4.22;;;27.00;53.70;;;;;;5094294;28;20067;-77
2023/07/01 02:58:27;;;;;;;6.10;3.95;;;26.90;53.10;;;;;;5112243;28;20112;-77
2023/07/01 03:00:53;;;;;;;4.95;4.38;;;27.00;53.70;;;;;;5110746;28;20438;-77
2023/07/01 03:03:19;;;;;;;6.07;4.63;;;26.90;53.20;;;;;;5111166;28;20043;-77
2023/07/01 03:05:45;;;;;;;8.73;4.88;;;27.00;53.70;;;;;;5110893;28;20059;-77
2023/07/01 03:08:11;;;;;;;6.80;3.97;;;27.00;53.70;;;;;;5110811;28;20043;-77
2023/07/01 03:10:37;;;;;;;8.77;4.35;;;27.10;53.70;;;;;;5077023;28;20043;-78
2023/07/01 03:13:03;;;;;;;10.95;4.90;;;27.00;53.80;;;;;;5112190;28;20084;-77
2023/07/01 03:15:29;;;;;;;6.85;4.45;;;27.00;53.80;;;;;;5093674;28;20032;-78
2023/07/01 03:17:55;;;;;;;9.80;4.47;;;27.10;53.70;;;;;;5093680;28;20444;-77
2023/07/01 03:20:22;;;;;;;6.25;3.80;;;27.10;53.70;;;;;;5110442;28;20055;-77
2023/07/01 03:22:52;;;;;;;6.72;3.95;;;27.00;53.70;;;;;;5109276;28;20040;-77
2023/07/01 03:25:18;;;;;;;8.90;3.72;;;27.20;53.70;;;;;;5092375;28;20039;-77
2023/07/01 03:27:46;;;;;;;5.57;4.55;;;27.10;53.70;;;;;;5092382;28;20161;-78
2023/07/01 03:30:15;;;;;;;6.22;4.28;;;27.00;53.70;;;;;;5075542;28;20047;-78
2023/07/01 03:32:44;;;;;;;5.43;4.15;;;27.10;53.60;;;;;;5075415;28;20158;-77
2023/07/01 03:35:11;;;;;;;9.05;4.68;;;27.10;53.60;;;;;;5092044;28;20514;-78
2023/07/01 03:37:42;;;;;;;8.40;5.00;;;27.10;53.60;;;;;;5109179;28;20036;-77
2023/07/01 03:40:11;;;;;;;3.75;3.33;;;27.10;53.60;;;;;;5109205;28;20127;-77
2023/07/01 03:42:41;;;;;;;6.32;3.90;;;27.10;53.60;;;;;;5109106;28;20047;-77
2023/07/01 03:45:09;;;;;;;7.72;4.13;;;27.10;53.60;;;;;;5108976;28;20450;-77
2023/07/01 03:47:37;;;;;;;5.43;3.80;;;27.10;53.70;;;;;;5108986;28;20054;-77
2023/07/01 03:50:07;;;;;;;5.22;3.75;;;27.00;53.70;;;;;;5109202;28;20028;-77
2023/07/01 03:52:34;;;;;;;5.68;4.10;;;27.00;53.60;;;;;;5091642;28;20051;-77
2023/07/01 03:55:00;;;;;;;8.63;3.83;;;27.10;53.60;;;;;;5109060;28;20177;-77
2023/07/01 03:57:26;;;;;;;6.65;4.90;;;26.90;53.10;;;;;;5109015;28;20039;-77
2023/07/01 03:59:52;;;;;;;6.97;4.72;;;27.00;53.70;;;;;;5109775;28;20042;-77
2023/07/01 04:02:18;;;;;;;7.35;4.55;;;27.10;53.70;;;;;;5111455;28;20038;-77
2023/07/01 04:04:44;;;;;;;8.30;5.05;;;27.00;53.70;;;;;;5111330;28;20092;-77
2023/07/01 04:07:10;;;;;;;9.18;5.13;;;26.90;53.10;;;;;;5111654;28;20118;-77
2023/07/01 04:09:36;;;;;;;8.82;5.22;;;26.90;53.10;;;;;;5111484;28;20124;-77
2023/07/01 04:12:02;;;;;;;10.77;5.20;;;27.00;53.70;;;;;;5110459;28;20038;-77
2023/07/01 04:14:28;;;;;;;7.55;5.03;;;26.90;53.10;;;;;;5111044;28;20035;-77
2023/07/01 04:16:54;;;;;;;7.03;4.72;;;27.00;53.70;;;;;;5111316;28;20055;-77
2023/07/01 04:19:20;;;;;;;6.78;5.32;;;26.90;53.10;;;;;;5111161;28;20473;-78
2023/07/01 04:21:46;;;;;;;11.55;5.95;;;26.90;53.10;;;;;;5109902;28;20562;-78
2023/07/01 04:24:12;;;;;;;9.10;5.30;;;27.00;53.70;;;;;;5110220;28;20028;-78
2023/07/01 04:26:38;;;;;;;5.47;4.38;;;27.00;53.80;;;;;;5112199;28;20024;-78
2023/07/01 04:29:04;;;;;;;10.02;5.00;;;27.00;53.80;;;;;;5115021;27;20031;-77
2023/07/01 04:31:30;;;;;;;10.77;5.18;;;27.00;53.90;;;;;;5113366;28;20035;-77
2023/07/01 04:33:56;;;;;;;6.30;4.85;;;27.00;53.80;;;;;;5112728;28;20556;-77
2023/07/01 04:36:22;;;;;;;8.15;4.72;;;27.10;53.80;;;;;;5114931;28;20054;-78
2023/07/01 04:38:48;;;;;;;7.93;5.05;;;27.00;53.80;;;;;;5115124;28;20028;-77
2023/07/01 04:41:14;;;;;;;7.25;5.43;;;27.00;53.80;;;;;;5114862;28;20036;-77
2023/07/01 04:43:41;;;;;;;7.20;5.53;;;27.00;53.80;;;;;;5114613;28;20055;-77
2023/07/01 04:46:07;;;;;;;9.45;5.63;;;27.00;53.80;;;;;;5113504;28;20032;-77
2023/07/01 04:48:33;;;;;;;6.28;5.13;;;27.10;53.80;;;;;;5113578;28;20375;-77
2023/07/01 04:50:59;;;;;;;9.20;5.53;;;27.10;53.80;;;;;;5114731;28;20083;-77
2023/07/01 04:53:25;;;;;;;8.75;5.22;;;27.20;53.70;;;;;;5114423;28;20043;-77
2023/07/01 04:55:51;;;;;;;4.70;4.18;;;27.10;53.70;;;;;;5113208;28;20036;-77
2023/07/01 04:58:17;;;;;;;4.88;4.03;;;27.20;53.60;;;;;;5112893;28;20399;-77
2023/07/01 05:00:44;;;;;;;9.68;4.90;;;27.20;53.60;;;;;;5113165;28;20036;-77
2023/07/01 05:03:10;;;;;;;7.30;4.88;;;27.30;53.60;;;;;;5114477;28;20575;-76
2023/07/01 05:05:36;;;;;;;6.10;4.78;;;27.20;53.60;;;;;;5112969;28;20412;-77
2023/07/01 05:08:02;;;;;;;8.60;5.38;;;27.20;53.60;;;;;;5113034;28;20040;-77
2023/07/01 05:10:28;;;;;;;5.05;3.78;;;27.30;53.50;;;;;;5114095;28;20027;-77
2023/07/01 05:12:55;;;;;;;7.90;4.97;;;27.30;53.50;;;;;;5114075;28;20028;-77
2023/07/01 05:15:21;;;;;;;3.65;3.33;;;27.30;53.50;;;;;;5114116;28;20499;-77
2023/07/01 05:17:47;;;;;;;9.02;4.13;;;27.30;53.50;;;;;;5113189;28;20032;-77
2023/07/01 05:20:13;;;;;;;6.75;5.70;;;27.20;53.40;;;;;;5113959;28;20638;-77
2023/07/01 05:22:39;;;;;;;6.75;4.80;;;27.40;53.40;;;;;;5114134;28;20030;-77
2023/07/01 05:25:05;;;;;;;5.13;3.33;;;27.30;53.40;;;;;;5114006;27;20031;-77
2023/07/01 05:27:31;;;;;;;8.15;4.90;;;27.40;53.40;;;;;;5113823;28;20447;-77
2023/07/01 05:29:57;;;;;;;11.35;5.07;;;27.30;53.30;;;;;;5114230;28;20039;-77
2023/07/01 05:32:24;;;;;;;7.60;4.82;;;27.30;53.30;;;;;;5112383;28;20034;-77
2023/07/01 05:34:50;;;;;;;2.45;2.25;;;27.50;53.30;;;;;;5113714;28;20503;-77
2023/07/01 05:37:16;;;;;;;6.00;3.65;;;27.30;53.30;;;;;;5113419;28;20471;-77
2023/07/01 05:39:42;;;;;;;11.07;5.07;;;27.40;53.20;;;;;;5112846;28;20485;-77
2023/07/01 05:42:08;;;;;;;4.07;2.78;;;27.40;53.10;;;;;;5113241;28;20035;-77
2023/07/01 05:44:34;;;;;;;4.40;3.72;;;27.40;53.10;;;;;;5113877;28;20040;-75
2023/07/01 05:47:00;;;;;;;6.55;4.25;;;27.50;53.00;;;;;;5095492;28;20373;-77
2023/07/01 05:49:26;;;;;;;8.50;4.65;;;27.50;53.00;;;;;;5112079;28;20063;-77
2023/07/01 05:51:52;;;;;;;2.78;2.33;;;27.50;53.10;;;;;;5113136;28;20024;-77
2023/07/01 05:54:18;;;;;;;7.93;4.68;;;27.50;53.00;;;;;;5113250;28;20104;-77
2023/07/01 05:56:44;;;;;;;7.88;5.40;;;27.40;53.00;;;;;;5113341;28;20518;-77
2023/07/01 05:59:11;;;;;;;3.30;2.50;;;27.40;53.00;;;;;;5113404;28;20092;-77
2023/07/01 06:01:37;;;;;;;8.10;4.15;;;27.40;53.00;;;;;;5111739;28;20480;-77
2023/07/01 06:04:04;;;;;;;5.63;4.22;;;27.40;53.00;;;;;;5111815;28;20475;-77
2023/07/01 06:06:30;;;;;;;2.35;2.13;;;27.40;53.00;;;;;;5113304;28;20451;-78
2023/07/01 06:08:56;;;;;;;1.73;1.58;;;27.50;53.00;;;;;;5111693;28;20024;-77
2023/07/01 06:11:22;;;;;;;1.52;1.42;;;27.60;53.00;;;;;;5112820;28;20149;-77
2023/07/01 06:13:48;;;;;;;1.75;1.65;;;27.40;53.00;;;;;;5112880;28;20047;-77
2023/07/01 06:16:15;;;;;;;5.15;3.20;;;27.50;53.00;;;;;;5112955;28;20395;-77
2023/07/01 06:18:41;;;;;;;1.92;1.80;;;27.40;53.00;;;;;;5112936;28;20043;-77
2023/07/01 06:21:08;;;;;;;1.77;1.67;;;27.50;53.00;;;;;;5111739;28;20399;-77
2023/07/01 06:23:35;;;;;;;1.63;1.52;;;27.40;53.10;;;;;;5112714;28;20036;-77
2023/07/01 06:26:05;;;;;;;4.05;2.47;;;27.40;53.00;;;;;;5112554;28;20115;-77
2023/07/01 06:28:31;;;;;;;1.13;1.10;;;27.30;53.00;;;;;;5112848;28;20377;-77
2023/07/01 06:30:57;;;;;;;1.92;1.35;;;27.40;53.00;;;;;;5111475;28;20506;-77
2023/07/01 06:33:23;;;;;;;3.95;3.17;;;27.40;53.00;;;;;;5112662;28;20030;-77
2023/07/01 06:35:49;;;;;;;3.63;3.00;;;27.30;53.00;;;;;;5112539;28;20028;-77
2023/07/01 06:38:15;;;;;;;2.75;2.03;;;27.30;53.00;;;;;;5112492;28;20391;-77
2023/07/01 06:40:41;;;;;;;1.63;1.52;;;27.30;53.00;;;;;;5111356;28;20032;-77
2023/07/01 06:43:07;;;;;;;1.58;1.48;;;27.50;53.00;;;;;;5110987;28;20035;-77
2023/07/01 06:45:34;;;;;;;1.67;1.58;;;27.30;53.00;;;;;;5112463;28;20031;-77
2023/07/01 06:48:01;;;;;;;1.70;1.60;;;27.40;53.00;;;;;;5111130;28;20028;-77
2023/07/01 06:50:27;;;;;;;1.58;1.48;;;27.40;53.00;;;;;;5110690;28;20037;-77
2023/07/01 06:52:53;;;;;;;1.60;1.50;;;27.30;53.00;;;;;;5111975;28;20061;-77
2023/07/01 06:55:19;;;;;;;4.40;3.10;;;27.50;53.00;;;;;;5111222;28;20511;-77
2023/07/01 06:57:45;;;;;;;1.67;1.45;;;27.40;53.00;;;;;;5112281;28;20039;-77
2023/07/01 07:00:12;;;;;;;2.53;1.83;;;27.40;53.00;;;;;;5112218;28;20027;-77
2023/07/01 07:02:39;;;;;;;1.30;1.20;;;27.40;53.10;;;;;;5111843;28;20119;-77
2023/07/01 07:05:06;;;;;;;1.33;1.23;;;27.50;53.00;;;;;;5112447;28;20084;-77
2023/07/01 07:07:32;;;;;;;1.27;1.17;;;27.50;53.00;;;;;;5110631;28;20042;-77
2023/07/01 07:09:58;;;;;;;1.80;1.42;;;27.50;53.00;;;;;;5093902;28;20108;-77
2023/07/01 07:12:25;;;;;;;1.85;1.67;;;27.60;53.10;;;;;;5112259;28;20063;-77
2023/07/01 07:14:51;;;;;;;1.52;1.40;;;27.40;53.10;;;;;;5110724;28;20035;-77
2023/07/01 07:17:18;;;;;;;1.70;1.60;;;27.40;53.10;;;;;;5112026;28;20036;-77
2023/07/01 07:19:44;;;;;;;1.20;1.10;;;27.40;53.00;;;;;;5110533;28;20041;-77
2023/07/01 07:22:10;;;;;;;1.35;1.23;;;27.30;53.10;;;;;;5111471;28;20095;-77
2023/07/01 07:24:36;;;;;;;1.73;1.40;;;27.40;53.00;;;;;;5126785;27;20133;-77
2023/07/01 07:27:02;;;;;;;1.75;1.65;;;27.30;53.10;;;;;;5111729;28;20816;-77
2023/07/01 07:29:30;;;;;;;1.88;1.77;;;27.30;53.10;;;;;;5111949;28;20024;-77
2023/07/01 07:31:57;;;;;;;3.13;2.65;;;27.40;53.20;;;;;;5111688;28;20491;-77
2023/07/01 07:34:24;;;;;;;2.05;1.60;;;27.30;53.00;;;;;;5111626;28;20032;-77
2023/07/01 07:36:50;;;;;;;2.38;1.55;;;27.40;53.10;;;;;;5111598;28;20046;-77
2023/07/01 07:39:16;;;;;;;2.60;1.98;;;27.40;53.10;;;;;;5112019;28;20382;-77
2023/07/01 07:41:44;;;;;;;1.73;1.63;;;27.30;53.20;;;;;;5110453;28;20040;-77
2023/07/01 07:44:10;;;;;;;2.28;1.58;;;27.30;53.20;;;;;;5111935;28;20075;-77
2023/07/01 07:46:38;;;;;;;1.55;1.27;;;27.20;53.20;;;;;;5111519;28;20032;-77
2023/07/01 07:49:04;;;;;;;1.58;1.48;;;27.40;53.20;;;;;;5111691;28;20019;-77
2023/07/01 07:51:31;;;;;;;2.00;1.77;;;27.40;53.30;;;;;;5110485;28;20531;-77
2023/07/01 07:53:57;;;;;;;1.60;1.50;;;27.40;53.40;;;;;;5111343;28;20122;-77
2023/07/01 07:56:23;;;;;;;2.25;1.95;;;27.40;53.30;;;;;;5111732;28;20115;-77
2023/07/01 07:58:49;;;;;;;1.67;1.40;;;27.40;53.30;;;;;;5111702;28;20077;-77
2023/07/01 08:01:15;;;;;;;1.80;1.70;;;27.40;53.30;;;;;;5110761;28;20055;-77
2023/07/01 08:03:41;;;;;;;2.08;1.48;;;27.40;53.40;;;;;;5115244;28;20089;-77
2023/07/01 08:06:07;;;;;;;1.92;1.35;;;27.30;53.30;;;;;;5114286;28;20065;-77
2023/07/01 08:08:34;;;;;;;2.60;1.50;;;27.40;53.30;;;;;;5114228;28;20066;-77
2023/07/01 08:11:01;;;;;;;1.90;1.80;;;27.30;53.40;;;;;;5115690;28;20111;-77
2023/07/01 08:13:27;;;;;;;1.70;1.60;;;27.40;53.40;;;;;;5113959;28;20441;-77
2023/07/01 08:15:53;;;;;;;1.92;1.60;;;27.40;53.30;;;;;;5115354;28;20093;-77
2023/07/01 08:18:19;;;;;;;1.95;1.50;;;27.30;53.30;;;;;;5115273;27;20023;-77
2023/07/01 08:20:46;;;;;;;1.55;1.42;;;27.30;53.20;;;;;;5115494;28;20395;-77
2023/07/01 08:23:14;;;;;;;2.33;1.40;;;27.30;53.30;;;;;;5115210;28;20470;-77
2023/07/01 08:25:40;;;;;;;2.08;1.88;;;27.30;53.30;;;;;;5113875;28;20027;-77
2023/07/01 08:28:06;;;;;;;4.07;2.20;;;27.30;53.40;;;;;;5115251;28;20028;-77
2023/07/01 08:30:33;;;;;;;2.53;2.10;;;27.40;53.30;;;;;;5115021;28;20070;-77
2023/07/01 08:32:59;;;;;;;1.67;1.48;;;27.40;53.30;;;;;;5114677;28;20055;-77
2023/07/01 08:35:25;;;;;;;2.22;1.75;;;27.30;53.20;;;;;;5114769;28;20078;-77
2023/07/01 08:37:51;;;;;;;1.75;1.65;;;27.20;53.30;;;;;;5115278;28;20486;-77
2023/07/01 08:40:19;;;;;;;1.50;1.40;;;27.30;53.30;;;;;;5115021;28;20031;-77
2023/07/01 08:42:58;;;;;;;2.45;1.70;;;27.30;53.30;;;;;;5114728;28;20024;-77
2023/07/01 08:45:25;;;;;;;1.77;1.60;;;27.10;53.50;;;;;;5114651;28;20491;-77
2023/07/01 08:47:53;;;;;;;3.25;2.58;;;27.30;53.40;;;;;;5114960;28;20040;-77
2023/07/01 08:50:20;;;;;;;1.70;1.60;;;27.40;53.40;;;;;;5115108;28;20399;-77
2023/07/01 08:52:51;;;;;;;2.35;1.63;;;27.30;53.30;;;;;;5113206;28;20036;-77
2023/07/01 08:55:17;;;;;;;1.67;1.58;;;27.20;53.40;;;;;;5132695;27;20058;-77
2023/07/01 08:57:43;;;;;;;4.22;2.10;;;27.30;53.40;;;;;;5132821;27;20047;-77
2023/07/01 09:00:16;;;;;;;1.50;1.40;;;27.30;53.50;;;;;;5132615;27;20047;-77
2023/07/01 09:02:43;;;;;;;2.72;2.05;;;27.30;53.30;;;;;;5132162;27;20031;-76
2023/07/01 09:05:09;;;;;;;2.55;2.28;;;27.30;53.30;;;;;;5115365;27;20491;-77
2023/07/01 09:07:35;;;;;;;1.40;1.30;;;27.40;53.30;;;;;;5132417;27;20046;-77
2023/07/01 09:10:02;;;;;;;2.42;1.77;;;27.30;53.40;;;;;;5132328;27;20043;-77
2023/07/01 09:12:34;;;;;;;1.50;1.40;;;27.40;53.40;;;;;;5131633;27;20493;-77
2023/07/01 09:15:07;;;;;;;1.40;1.30;;;27.30;53.40;;;;;;5132211;27;20043;-77
2023/07/01 09:17:47;;;;;;;1.50;1.40;;;27.30;53.30;;;;;;5115107;27;20067;-77
2023/07/01 09:20:33;;;;;;;1.83;1.65;;;27.30;53.30;;;;;;5116975;27;20136;-77
2023/07/01 09:22:59;;;;;;;1.23;1.13;;;27.40;53.30;;;;;;5131986;27;20042;-77
2023/07/01 09:25:28;;;;;;;3.03;1.40;;;27.30;53.40;;;;;;5129573;27;20122;-77
2023/07/01 09:27:54;;;;;;;1.50;1.40;;;27.40;53.40;;;;;;5114009;28;20471;-77
2023/07/01 09:30:20;;;;;;;2.70;1.70;;;27.20;53.40;;;;;;5112790;28;20039;-77
2023/07/01 09:32:47;;;;;;;1.83;1.40;;;27.20;53.40;;;;;;5113722;28;20050;-77
2023/07/01 09:35:13;;;;;;;1.67;1.58;;;27.40;53.40;;;;;;5113818;28;20032;-76
2023/07/01 09:37:39;;;;;;;2.75;1.55;;;27.20;53.40;;;;;;5113518;28;20031;-77
2023/07/01 09:40:32;;;;;;;1.75;1.50;;;27.30;53.40;;;;;;5113846;28;20036;-77
2023/07/01 09:42:58;;;;;;;2.03;1.70;;;27.20;53.40;;;;;;5070357;28;20040;-77
2023/07/01 09:45:24;;;;;;;1.60;1.50;;;27.10;53.50;;;;;;5070468;28;20067;-77
2023/07/01 09:47:52;;;;;;;2.97;1.77;;;27.20;53.50;;;;;;5053552;28;20123;-77
2023/07/01 09:50:35;;;;;;;1.55;1.45;;;27.20;53.50;;;;;;5037112;28;20051;-77
2023/07/01 09:53:01;;;;;;;1.50;1.40;;;27.20;53.60;;;;;;5069925;28;20044;-77
2023/07/01 09:55:28;;;;;;;1.52;1.42;;;27.20;53.50;;;;;;5070414;28;20048;-77
2023/07/01 09:57:54;;;;;;;1.52;1.42;;;27.30;53.50;;;;;;5070326;28;20128;-77
2023/07/01 10:00:20;;;;;;;1.92;1.75;;;27.10;53.50;;;;;;5070157;28;20051;-76
2023/07/01 10:02:47;;;;;;;1.50;1.40;;;27.20;53.60;;;;;;5069983;28;20040;-77
2023/07/01 10:05:17;;;;;;;2.03;1.60;;;27.20;53.60;;;;;;5053408;28;20029;-77
2023/07/01 10:07:45;;;;;;;1.77;1.67;;;27.20;53.50;;;;;;5036366;28;20376;-77
2023/07/01 10:10:21;;;;;;;1.48;1.38;;;27.30;53.50;;;;;;5069876;28;20539;-77
2023/07/01 10:12:49;;;;;;;1.70;1.60;;;27.30;53.50;;;;;;5069774;28;20055;-77
2023/07/01 10:15:22;;;;;;;1.50;1.40;;;27.30;53.50;;;;;;5069714;28;20046;-77
2023/07/01 10:17:49;;;;;;;2.17;1.67;;;27.20;53.50;;;;;;5070018;28;20041;-77
2023/07/01 10:20:28;;;;;;;1.75;1.55;;;27.30;53.50;;;;;;5100220;28;20051;-77
2023/07/01 10:22:56;;;;;;;1.60;1.50;;;27.20;53.50;;;;;;5112847;28;20027;-77
2023/07/01 10:25:34;;;;;;;1.60;1.50;;;27.30;53.50;;;;;;5110690;28;20403;-77
2023/07/01 10:28:00;;;;;;;1.90;1.58;;;27.20;53.60;;;;;;5112678;28;20418;-77
2023/07/01 10:30:37;;;;;;;1.60;1.50;;;27.30;53.50;;;;;;5112896;28;20042;-77
2023/07/01 10:33:35;;;;;;;1.52;1.42;;;27.10;53.50;;;;;;5112568;28;20494;-77
2023/07/01 10:36:13;;;;;;;1.80;1.70;;;27.30;53.40;;;;;;5112472;28;20046;-77
2023/07/01 10:38:39;;;;;;;3.20;1.92;;;27.10;53.50;;;;;;5112574;28;20046;-77
2023/07/01 10:41:06;;;;;;;1.80;1.70;;;27.30;53.50;;;;;;5112384;28;20194;-77
2023/07/01 10:43:37;;;;;;;1.50;1.40;;;27.20;53.50;;;;;;5112019;28;20052;-77
2023/07/01 10:46:29;;;;;;;1.75;1.65;;;27.10;53.50;;;;;;5112161;28;20047;-77
2023/07/01 10:49:06;;;;;;;3.20;1.50;;;27.20;53.50;;;;;;5052288;28;20048;-77
2023/07/01 10:51:51;;;;;;;1.33;1.23;;;27.30;53.60;;;;;;5069246;28;20032;-77
2023/07/01 10:54:38;;;;;;;1.50;1.40;;;27.30;53.60;;;;;;5068998;28;20052;-77
2023/07/01 10:57:13;;;;;;;3.60;2.25;;;27.20;53.60;;;;;;5069146;28;20051;-77
2023/07/01 10:59:39;;;;;;;3.05;2.70;;;27.20;53.60;;;;;;5068921;28;20047;-77
2023/07/01 11:02:08;;;;;;;2.13;1.92;;;27.30;53.60;;;;;;5069078;28;20060;-77
2023/07/01 11:04:53;;;;;;;2.42;2.22;;;27.30;53.60;;;;;;5035497;28;20123;-77
2023/07/01 11:07:27;;;;;;;2.00;1.90;;;27.30;53.60;;;;;;5048571;28;20048;-77
2023/07/01 11:09:54;;;;;;;1.40;1.30;;;27.30;53.60;;;;;;5049079;28;20534;-77
2023/07/01 11:12:20;;;;;;;2.35;1.90;;;27.30;53.60;;;;;;5032208;28;20405;-77
2023/07/01 11:14:46;;;;;;;2.20;1.48;;;27.30;53.60;;;;;;5048678;28;20378;-77
2023/07/01 11:17:20;;;;;;;1.63;1.45;;;27.30;53.60;;;;;;5048851;28;20043;-77
2023/07/01 11:19:54;;;;;;;1.90;1.80;;;27.30;53.60;;;;;;5048572;28;20039;-77
2023/07/01 11:22:20;;;;;;;1.65;1.55;;;27.30;53.60;;;;;;5048712;28;20058;-77
2023/07/01 11:24:45;;;;;;;3.05;2.75;;;27.30;53.60;;;;;;5052888;28;20073;-76
2023/07/01 11:27:11;;;;;;;2.00;1.80;;;27.30;53.60;;;;;;5089037;28;20044;-77
2023/07/01 11:29:41;;;;;;;1.92;1.55;;;27.20;53.50;;;;;;5072332;28;20043;-77
2023/07/01 11:32:12;;;;;;;3.13;2.22;;;27.30;53.50;;;;;;5088791;28;20051;-77
2023/07/01 11:34:39;;;;;;;2.28;1.90;;;27.20;53.50;;;;;;5088943;28;20047;-77
2023/07/01 11:37:05;;;;;;;1.50;1.40;;;27.20;53.50;;;;;;5092580;28;20075;-77
2023/07/01 11:39:31;;;;;;;1.65;1.50;;;27.30;53.50;;;;;;5093249;28;20065;-77
2023/07/01 11:42:01;;;;;;;3.00;2.25;;;27.20;53.50;;;;;;5093153;28;20048;-77
2023/07/01 11:44:28;;;;;;;2.88;2.67;;;27.20;53.50;;;;;;5101290;28;20071;-77
2023/07/01 11:46:55;;;;;;;2.15;1.95;;;27.30;53.50;;;;;;5115816;28;20043;-77
2023/07/01 11:49:21;;;;;;;1.95;1.85;;;27.30;53.50;;;;;;5115873;27;20058;-77
2023/07/01 11:51:56;;;;;;;1.42;1.33;;;27.30;53.50;;;;;;5115805;28;20075;-77
2023/07/01 11:54:42;;;;;;;1.45;1.35;;;27.20;53.60;;;;;;5115420;28;20023;-77
2023/07/01 11:57:15;;;;;;;1.67;1.58;;;27.10;53.60;;;;;;5114350;28;20074;-77
2023/07/01 11:59:44;;;;;;;1.42;1.33;;;27.20;53.60;;;;;;5115958;28;20024;-77
2023/07/01 12:02:10;;;;;;;1.48;1.38;;;27.20;53.60;;;;;;5115879;27;20045;-77
2023/07/01 12:04:36;;;;;;;2.25;1.67;;;27.20;53.70;;;;;;5115274;28;20114;-77
2023/07/01 12:07:11;;;;;;;2.20;1.60;;;27.30;53.70;;;;;;5115533;28;20094;-77
2023/07/01 12:09:40;;;;;;;1.40;1.30;;;27.10;53.70;;;;;;5115324;28;20036;-76
2023/07/01 12:12:07;;;;;;;2.13;1.80;;;27.20;53.70;;;;;;5115677;28;20028;-77
2023/07/01 12:14:33;;;;;;;1.70;1.60;;;27.20;53.70;;;;;;5115290;28;20115;-77
2023/07/01 12:17:00;;;;;;;1.60;1.45;;;27.20;53.70;;;;;;5130133;27;20074;-77
2023/07/01 12:19:26;;;;;;;1.38;1.27;;;27.30;53.70;;;;;;5114223;28;20047;-77
2023/07/01 12:21:54;;;;;;;1.02;1.02;;;27.30;53.70;;;;;;5115275;28;20088;-77
2023/07/01 12:24:24;;;;;;;1.50;1.38;;;27.30;53.70;;;;;;5115009;28;20126;-77
2023/07/01 12:26:52;;;;;;;1.55;1.17;;;27.30;53.70;;;;;;5115079;28;20034;-77
2023/07/01 12:29:18;;;;;;;2.25;1.45;;;27.30;53.70;;;;;;5115104;28;20052;-77
2023/07/01 12:31:45;;;;;;;1.23;1.20;;;27.20;53.70;;;;;;5113840;28;20107;-77
2023/07/01 12:34:11;;;;;;;1.55;1.45;;;27.20;53.60;;;;;;5113553;28;20042;-77
2023/07/01 12:36:38;;;;;;;1.63;1.35;;;27.30;53.60;;;;;;5114770;28;20165;-77
2023/07/01 12:39:05;;;;;;;1.33;1.23;;;27.20;53.60;;;;;;5113640;28;20088;-77
2023/07/01 12:41:33;;;;;;;1.52;1.42;;;27.30;53.60;;;;;;5114973;28;20102;-77
2023/07/01 12:43:59;;;;;;;1.48;1.38;;;27.30;53.60;;;;;;5114976;28;20073;-77
2023/07/01 12:46:25;;;;;;;1.73;1.60;;;27.20;53.60;;;;;;5114775;28;20441;-76
2023/07/01 12:48:51;;;;;;;1.75;1.65;;;27.30;53.60;;;;;;5114149;28;20027;-77
2023/07/01 12:51:17;;;;;;;1.40;1.30;;;27.20;53.60;;;;;;5114489;28;20490;-77